Midwest City, Oklahoma
Current Conditions -  °F | °C
As of 1:58 PM on Sunday 21 Dec 2014 (Local Time) from KTIK Reporting Station
Overcast Overcast  
Wind Chill: 39°   Ceiling: 900
Heat Index: 46°   Visibility: 9mi
Dew Point: 42°   Wind: 15mph
Humidity: 87%   Direction: 160°SSE
Pressure: 29.82"   Gusts: 21mph
Location:  35.46°N, 97.38°W
Report Text: KTIK 211958Z AUTO 16013G18KT 9SM OVC009 08/06 A2982 RMK AO2 SLP108 T00770056
Loading
Personal Weather Stations






























Interactive Weather Map New forecast layout! Learn more

10-Day Weather Forecast

Advertisements
Track Severe Weather on mobile